createdAt,value
2023-02-06T00:02:07.461Z,100623.91
2023-02-06T00:04:34.122Z,100633.19
2023-02-06T00:07:00.866Z,100620.75
2023-02-06T00:09:27.642Z,100620.13
2023-02-06T00:11:54.196Z,100612.50
2023-02-06T00:14:20.778Z,100605.97
2023-02-06T00:16:47.319Z,100604.03
2023-02-06T00:19:13.929Z,100602.34
2023-02-06T00:21:40.737Z,100596.38
2023-02-06T00:24:07.605Z,100603.13
2023-02-06T00:26:34.297Z,100602.25
2023-02-06T00:29:01.164Z,100605.66
2023-02-06T00:31:27.916Z,100609.94
2023-02-06T00:33:54.637Z,100611.06
2023-02-06T00:36:21.178Z,100604.13
2023-02-06T00:38:47.910Z,100616.25
2023-02-06T00:41:14.834Z,100609.53
2023-02-06T00:43:42.230Z,100603.31
2023-02-06T00:46:08.896Z,100611.69
2023-02-06T00:48:35.756Z,100613.66
2023-02-06T00:51:02.864Z,100610.91
2023-02-06T00:53:29.558Z,100610.41
2023-02-06T00:55:56.183Z,100626.41
2023-02-06T00:58:22.990Z,100622.69
2023-02-06T01:00:49.828Z,100615.09
2023-02-06T01:03:16.535Z,100618.66
2023-02-06T01:05:43.102Z,100621.00
2023-02-06T01:08:09.729Z,100616.72
2023-02-06T01:10:36.407Z,100615.09
2023-02-06T01:13:03.059Z,100622.03
2023-02-06T01:15:31.181Z,100634.25
2023-02-06T01:17:57.884Z,100635.78
2023-02-06T01:20:25.075Z,100621.75
2023-02-06T01:22:51.850Z,100626.91
2023-02-06T01:25:19.052Z,100627.88
2023-02-06T01:27:45.897Z,100632.38
2023-02-06T01:30:13.277Z,100634.41
2023-02-06T01:32:40.949Z,100634.41
2023-02-06T01:35:09.457Z,100619.72
2023-02-06T01:37:39.299Z,100613.66
2023-02-06T01:40:08.333Z,100617.06
2023-02-06T01:42:36.645Z,100623.91
2023-02-06T01:45:21.392Z,100627.53
2023-02-06T01:47:50.059Z,100630.28
2023-02-06T01:50:16.897Z,100638.03
2023-02-06T01:52:43.664Z,100641.50
2023-02-06T01:55:10.251Z,100631.41
2023-02-06T01:57:36.920Z,100640.94
2023-02-06T02:00:08.567Z,100638.38
2023-02-06T02:02:37.764Z,100619.78
2023-02-06T02:05:07.326Z,100632.72
2023-02-06T02:07:37.545Z,100627.78
2023-02-06T02:10:05.321Z,100623.34
2023-02-06T02:12:31.915Z,100626.91
2023-02-06T02:14:59.535Z,100621.75
2023-02-06T02:17:32.326Z,100615.56
2023-02-06T02:20:14.255Z,100599.91
2023-02-06T02:23:04.768Z,100599.56
2023-02-06T02:26:18.907Z,100597.66
2023-02-06T02:29:07.149Z,100594.31
2023-02-06T02:31:58.474Z,100580.66
2023-02-06T02:34:33.209Z,100591.06
2023-02-06T02:37:11.981Z,100598.13
2023-02-06T02:39:59.388Z,100591.19
2023-02-06T02:42:47.257Z,100592.94
2023-02-06T02:45:26.968Z,100588.50
2023-02-06T02:48:04.124Z,100587.94
2023-02-06T02:50:32.806Z,100582.94
2023-02-06T02:53:00.939Z,100587.94
2023-02-06T02:55:27.688Z,100592.94
2023-02-06T02:58:01.536Z,100582.75
2023-02-06T03:00:30.992Z,100584.53
2023-02-06T03:02:58.601Z,100573.28
2023-02-06T03:05:26.865Z,100583.53
2023-02-06T03:08:11.522Z,100574.81
2023-02-06T03:11:04.258Z,100570.78
2023-02-06T03:13:54.712Z,100563.19
2023-02-06T03:16:37.127Z,100571.53
2023-02-06T03:19:15.162Z,100561.81
2023-02-06T03:21:44.867Z,100560.75
2023-02-06T03:24:17.246Z,100561.25
2023-02-06T03:26:45.336Z,100561.44
2023-02-06T03:29:15.899Z,100567.41
2023-02-06T03:31:47.844Z,100561.44
2023-02-06T03:34:20.685Z,100570.78
2023-02-06T03:36:48.829Z,100574.19
2023-02-06T03:39:15.738Z,100572.72
2023-02-06T03:41:44.349Z,100574.50
2023-02-06T03:44:15.547Z,100581.50
2023-02-06T03:46:44.060Z,100584.03
2023-02-06T03:49:14.662Z,100577.34
2023-02-06T03:51:46.106Z,100571.28
2023-02-06T03:54:17.378Z,100578.22
2023-02-06T03:56:48.753Z,100581.63
2023-02-06T03:59:15.546Z,100567.19
2023-02-06T04:01:50.577Z,100566.56
2023-02-06T04:04:25.087Z,100569.66
2023-02-06T04:06:51.679Z,100571.09
2023-02-06T04:09:18.322Z,100587.69
2023-02-06T04:11:44.781Z,100598.03
2023-02-06T04:14:11.375Z,100588.72
2023-02-06T04:16:38.196Z,100588.84
2023-02-06T04:19:04.816Z,100588.72
2023-02-06T04:21:31.436Z,100583.69
2023-02-06T04:23:57.987Z,100581.00
2023-02-06T04:26:24.852Z,100580.00
2023-02-06T04:28:51.570Z,100583.47
2023-02-06T04:31:18.253Z,100594.69
2023-02-06T04:33:44.911Z,100588.72
2023-02-06T04:36:11.481Z,100585.47
2023-02-06T04:38:38.132Z,100583.69
2023-02-06T04:41:07.293Z,100574.97
2023-02-06T04:43:34.691Z,100575.78
2023-02-06T04:46:01.444Z,100582.66
2023-02-06T04:48:28.457Z,100566.25
2023-02-06T04:50:55.083Z,100569.78
2023-02-06T04:53:21.762Z,100568.47
2023-02-06T04:55:48.525Z,100575.28
2023-02-06T04:58:15.107Z,100571.00
2023-02-06T05:00:41.684Z,100576.03
2023-02-06T05:03:08.133Z,100562.19
2023-02-06T05:05:35.130Z,100564.91
2023-02-06T05:08:01.869Z,100563.28
2023-02-06T05:10:28.533Z,100555.97
2023-02-06T05:12:56.165Z,100583.09
2023-02-06T05:15:22.826Z,100586.38
2023-02-06T05:17:49.387Z,100569.28
2023-02-06T05:20:16.103Z,100571.00
2023-02-06T05:22:42.816Z,100565.81
2023-02-06T05:25:09.456Z,100568.78
2023-02-06T05:27:36.235Z,100562.53
2023-02-06T05:30:03.164Z,100554.66
2023-02-06T05:32:29.727Z,100539.88
2023-02-06T05:34:56.410Z,100540.69
2023-02-06T05:37:23.086Z,100531.38
2023-02-06T05:39:49.706Z,100531.59
2023-02-06T05:42:16.329Z,100540.19
2023-02-06T05:44:43.004Z,100551.25
2023-02-06T05:47:09.715Z,100554.72
2023-02-06T05:49:36.687Z,100553.41
2023-02-06T05:52:03.416Z,100549.84
2023-02-06T05:54:29.929Z,100555.91
2023-02-06T05:56:58.035Z,100557.63
2023-02-06T05:59:24.701Z,100571.44
2023-02-06T06:01:51.392Z,100572.31
2023-02-06T06:04:18.173Z,100579.13
2023-02-06T06:06:45.017Z,100570.88
2023-02-06T06:09:11.747Z,100582.53
2023-02-06T06:11:38.364Z,100573.81
2023-02-06T06:14:04.877Z,100568.91
2023-02-06T06:16:31.649Z,100573.28
2023-02-06T06:18:58.325Z,100568.22
2023-02-06T06:21:25.030Z,100570.88
2023-02-06T06:23:51.621Z,100566.34
2023-02-06T06:26:18.170Z,100561.97
2023-02-06T06:28:44.971Z,100572.50
2023-02-06T06:31:12.296Z,100571.44
2023-02-06T06:33:40.045Z,100587.09
2023-02-06T06:36:08.609Z,100580.41
2023-02-06T06:38:35.455Z,100579.59
2023-02-06T06:41:02.531Z,100574.72
2023-02-06T06:43:29.214Z,100582.31
2023-02-06T06:45:55.978Z,100584.44
2023-02-06T06:48:23.025Z,100582.84
2023-02-06T06:50:50.579Z,100581.22
2023-02-06T06:53:17.581Z,100572.94
2023-02-06T06:55:44.603Z,100582.31
2023-02-06T06:58:11.287Z,100584.69
2023-02-06T07:00:38.798Z,100588.47
2023-02-06T07:03:06.037Z,100588.22
2023-02-06T07:05:33.421Z,100584.00
2023-02-06T07:08:00.392Z,100581.66
2023-02-06T07:10:27.086Z,100572.34
2023-02-06T07:12:53.868Z,100579.06
2023-02-06T07:15:20.947Z,100579.81
2023-02-06T07:17:47.601Z,100599.41
2023-02-06T07:20:15.541Z,100601.16
2023-02-06T07:22:42.162Z,100605.47
2023-02-06T07:25:08.855Z,100596.00
2023-02-06T07:27:35.626Z,100602.38
2023-02-06T07:30:02.210Z,100591.00
2023-02-06T07:32:28.881Z,100586.78
2023-02-06T07:34:55.574Z,100591.81
2023-02-06T07:37:22.161Z,100597.06
2023-02-06T07:39:48.849Z,100591.50
2023-02-06T07:42:15.454Z,100585.06
2023-02-06T07:44:42.032Z,100592.84
2023-02-06T07:47:12.022Z,100588.91
2023-02-06T07:49:38.751Z,100585.78
2023-02-06T07:52:05.690Z,100582.38
2023-02-06T07:54:32.667Z,100592.69
2023-02-06T07:56:59.356Z,100591.03
2023-02-06T07:59:26.578Z,100599.56
2023-02-06T08:01:53.620Z,100594.44
2023-02-06T08:04:20.457Z,100598.81
2023-02-06T08:06:48.243Z,100593.03
2023-02-06T08:09:19.054Z,100597.28
2023-02-06T08:11:45.629Z,100610.34
2023-02-06T08:14:12.530Z,100610.50
2023-02-06T08:16:39.632Z,100606.06
2023-02-06T08:19:11.203Z,100593.41
2023-02-06T08:21:39.061Z,100588.97
2023-02-06T08:24:06.185Z,100583.88
2023-02-06T08:26:32.935Z,100578.22
2023-02-06T08:29:03.804Z,100582.56
2023-02-06T08:31:33.821Z,100576.22
2023-02-06T08:34:01.227Z,100574.03
2023-02-06T08:36:31.737Z,100575.97
2023-02-06T08:38:59.882Z,100576.44
2023-02-06T08:41:29.349Z,100579.28
2023-02-06T08:43:58.755Z,100579.41
2023-02-06T08:46:28.652Z,100564.63
2023-02-06T08:48:59.784Z,100565.06
2023-02-06T08:51:30.426Z,100567.13
2023-02-06T08:54:03.310Z,100567.13
2023-02-06T08:56:32.203Z,100557.94
2023-02-06T08:59:00.082Z,100548.59
2023-02-06T09:01:28.643Z,100556.25
2023-02-06T09:03:57.610Z,100545.19
2023-02-06T09:06:25.781Z,100545.00
2023-02-06T09:08:53.482Z,100538.00
2023-02-06T09:11:22.457Z,100532.88
2023-02-06T09:13:49.765Z,100529.59
2023-02-06T09:16:19.086Z,100530.69
2023-02-06T09:18:46.906Z,100519.03
2023-02-06T09:21:16.794Z,100525.31
2023-02-06T09:23:46.561Z,100537.84
2023-02-06T09:26:16.087Z,100540.38
2023-02-06T09:28:42.931Z,100530.22
2023-02-06T09:31:10.530Z,100523.47
2023-02-06T09:33:38.908Z,100527.91
2023-02-06T09:36:13.863Z,100526.53
2023-02-06T09:38:44.090Z,100527.63
2023-02-06T09:41:39.509Z,100527.19
2023-02-06T09:44:27.287Z,100528.03
2023-02-06T09:46:59.581Z,100529.47
2023-02-06T09:49:39.243Z,100542.47
2023-02-06T09:52:21.232Z,100529.91
2023-02-06T09:54:53.664Z,100528.34
2023-02-06T09:58:05.431Z,100523.50
2023-02-06T10:01:08.642Z,100528.69
2023-02-06T10:03:59.271Z,100531.09
2023-02-06T10:06:30.301Z,100535.19
2023-02-06T10:09:17.682Z,100531.50
2023-02-06T10:11:59.043Z,100531.69
2023-02-06T10:14:57.671Z,100537.41
2023-02-06T10:17:27.250Z,100544.06
2023-02-06T10:20:02.772Z,100539.34
2023-02-06T10:23:08.814Z,100541.38
2023-02-06T10:25:43.776Z,100540.00
2023-02-06T10:28:21.495Z,100550.03
2023-02-06T10:31:25.118Z,100552.19
2023-02-06T10:34:19.653Z,100547.16
2023-02-06T10:37:20.932Z,100549.06
2023-02-06T10:40:32.198Z,100551.44
2023-02-06T10:43:19.320Z,100554.91
2023-02-06T10:46:24.769Z,100546.59
2023-02-06T10:49:05.841Z,100549.88
2023-02-06T10:51:38.176Z,100542.34
2023-02-06T10:54:12.116Z,100542.75
2023-02-06T10:56:48.174Z,100541.00
2023-02-06T10:59:32.927Z,100531.22
2023-02-06T11:02:26.228Z,100532.06
2023-02-06T11:05:14.258Z,100515.50
2023-02-06T11:07:49.002Z,100518.81
2023-02-06T11:10:21.912Z,100512.13
2023-02-06T11:12:55.765Z,100508.84
2023-02-06T11:15:32.963Z,100507.84
2023-02-06T11:18:02.257Z,100507.72
2023-02-06T11:20:33.410Z,100508.13
2023-02-06T11:23:17.476Z,100501.00
2023-02-06T11:25:46.237Z,100507.25
2023-02-06T11:28:16.230Z,100506.72
2023-02-06T11:30:58.583Z,100514.25
2023-02-06T11:33:49.854Z,100511.91
2023-02-06T11:36:38.866Z,100504.97
2023-02-06T11:39:20.576Z,100499.50
2023-02-06T11:42:18.714Z,100482.06
2023-02-06T11:44:50.741Z,100472.41
2023-02-06T11:47:38.269Z,100472.81
2023-02-06T11:50:24.665Z,100471.16
2023-02-06T11:52:57.342Z,100454.25
2023-02-06T11:55:34.665Z,100459.44
2023-02-06T11:58:21.531Z,100447.72
2023-02-06T12:00:51.086Z,100445.25
2023-02-06T12:03:33.180Z,100447.41
2023-02-06T12:06:10.117Z,100463.03
2023-02-06T12:08:40.695Z,100460.53
2023-02-06T12:11:14.732Z,100456.56
2023-02-06T12:13:47.889Z,100456.94
2023-02-06T12:16:15.652Z,100466.28
2023-02-06T12:18:45.869Z,100467.03
2023-02-06T12:21:16.689Z,100468.47
2023-02-06T12:23:53.025Z,100471.19
2023-02-06T12:26:23.401Z,100471.97
2023-02-06T12:29:15.704Z,100473.31
2023-02-06T12:31:54.053Z,100464.47
2023-02-06T12:34:25.487Z,100467.69
2023-02-06T12:37:00.634Z,100474.41
2023-02-06T12:39:33.319Z,100475.03
2023-02-06T12:42:32.623Z,100462.03
2023-02-06T12:45:07.985Z,100474.41
2023-02-06T12:47:44.679Z,100472.41
2023-02-06T12:50:23.644Z,100479.19
2023-02-06T12:53:14.531Z,100468.28
2023-02-06T12:55:47.881Z,100478.72
2023-02-06T12:58:53.239Z,100480.47
2023-02-06T13:01:37.431Z,100493.38
2023-02-06T13:04:11.792Z,100495.97
2023-02-06T13:06:58.042Z,100495.84
2023-02-06T13:09:31.331Z,100493.72
2023-02-06T13:12:29.494Z,100492.38
2023-02-06T13:15:03.318Z,100486.59
2023-02-06T13:17:45.310Z,100484.78
2023-02-06T13:20:14.694Z,100486.00
2023-02-06T13:22:51.106Z,100489.16
2023-02-06T13:25:29.928Z,100492.00
2023-02-06T13:27:59.108Z,100494.88
2023-02-06T13:30:29.032Z,100484.78
2023-02-06T13:33:22.761Z,100487.59
2023-02-06T13:36:10.199Z,100479.72
2023-02-06T13:38:39.179Z,100484.25
2023-02-06T13:41:14.657Z,100487.78
2023-02-06T13:43:45.686Z,100482.19
2023-02-06T13:46:20.087Z,100492.25
2023-02-06T13:49:18.128Z,100483.53
2023-02-06T13:52:15.533Z,100497.03
2023-02-06T13:55:21.634Z,100492.88
2023-02-06T13:58:34.233Z,100507.78
2023-02-06T14:01:04.156Z,100508.88
2023-02-06T14:03:33.939Z,100512.56
2023-02-06T14:06:20.923Z,100510.91
2023-02-06T14:09:06.484Z,100505.06
2023-02-06T14:12:07.682Z,100506.41
2023-02-06T14:14:34.244Z,100505.25
2023-02-06T14:17:19.555Z,100507.41
2023-02-06T14:19:50.566Z,100496.47
2023-02-06T14:22:26.331Z,100497.47
2023-02-06T14:25:09.697Z,100497.78
2023-02-06T14:28:04.887Z,100508.72
2023-02-06T14:30:49.774Z,100515.81
2023-02-06T14:33:22.178Z,100520.84
2023-02-06T14:35:52.011Z,100519.91
2023-02-06T14:38:31.654Z,100525.06
2023-02-06T14:40:59.941Z,100529.44
2023-02-06T14:43:31.875Z,100527.13
2023-02-06T14:46:07.984Z,100524.69
2023-02-06T14:48:41.526Z,100526.31
2023-02-06T14:51:18.225Z,100529.44
2023-02-06T14:54:01.838Z,100522.44
2023-02-06T14:56:34.427Z,100530.63
2023-02-06T14:59:13.371Z,100529.72
2023-02-06T15:01:42.193Z,100526.72
2023-02-06T15:04:23.885Z,100532.72
2023-02-06T15:06:56.581Z,100530.13
2023-02-06T15:09:31.140Z,100532.72
2023-02-06T15:12:01.009Z,100537.88
2023-02-06T15:14:31.084Z,100531.47
2023-02-06T15:17:02.815Z,100544.09
2023-02-06T15:19:35.825Z,100533.22
2023-02-06T15:22:14.484Z,100543.72
2023-02-06T15:25:09.204Z,100541.94
2023-02-06T15:27:38.004Z,100544.59
2023-02-06T15:30:24.046Z,100548.06
2023-02-06T15:32:53.286Z,100548.50
2023-02-06T15:35:26.918Z,100546.50
2023-02-06T15:37:55.072Z,100555.63
2023-02-06T15:40:31.124Z,100560.66
2023-02-06T15:42:59.102Z,100563.91
2023-02-06T15:45:30.583Z,100565.53
2023-02-06T15:48:07.924Z,100573.38
2023-02-06T15:50:34.961Z,100575.59
2023-02-06T15:53:20.684Z,100575.03
2023-02-06T15:55:54.258Z,100575.59
2023-02-06T15:58:21.061Z,100569.91
2023-02-06T16:00:53.600Z,100571.75
2023-02-06T16:03:25.567Z,100567.59
2023-02-06T16:05:53.336Z,100573.00
2023-02-06T16:08:24.409Z,100564.94
2023-02-06T16:10:54.497Z,100567.31
2023-02-06T16:13:26.089Z,100571.50
2023-02-06T16:16:11.756Z,100563.84
2023-02-06T16:18:42.418Z,100575.97
2023-02-06T16:21:13.553Z,100578.69
2023-02-06T16:23:49.044Z,100585.94
2023-02-06T16:26:20.367Z,100579.88
2023-02-06T16:28:54.193Z,100581.66
2023-02-06T16:31:21.192Z,100590.97
2023-02-06T16:33:50.996Z,100596.75
2023-02-06T16:36:19.838Z,100589.47
2023-02-06T16:38:57.736Z,100590.97
2023-02-06T16:41:38.888Z,100594.28
2023-02-06T16:44:15.249Z,100587.84
2023-02-06T16:46:41.987Z,100592.13
2023-02-06T16:49:17.340Z,100595.78
2023-02-06T16:51:46.068Z,100587.72
2023-02-06T16:54:20.580Z,100599.50
2023-02-06T16:56:47.898Z,100594.50
2023-02-06T16:59:14.655Z,100598.63
2023-02-06T17:01:41.476Z,100587.72
2023-02-06T17:04:08.374Z,100586.81
2023-02-06T17:06:36.205Z,100586.56
2023-02-06T17:09:09.098Z,100581.22
2023-02-06T17:11:36.859Z,100585.75
2023-02-06T17:14:03.812Z,100593.59
2023-02-06T17:16:31.407Z,100595.81
2023-02-06T17:18:58.238Z,100590.94
2023-02-06T17:21:27.579Z,100594.50
2023-02-06T17:23:54.353Z,100596.31
2023-02-06T17:26:23.253Z,100598.72
2023-02-06T17:28:51.335Z,100597.25
2023-02-06T17:31:18.877Z,100596.66
2023-02-06T17:33:45.577Z,100589.22
2023-02-06T17:36:32.414Z,100610.88
2023-02-06T17:39:00.197Z,100608.78
2023-02-06T17:41:27.676Z,100614.44
2023-02-06T17:43:54.718Z,100614.44
2023-02-06T17:46:21.422Z,100615.56
2023-02-06T17:48:48.248Z,100620.81
2023-02-06T17:51:15.154Z,100616.16
2023-02-06T17:53:41.624Z,100618.97
2023-02-06T17:56:13.180Z,100622.84
2023-02-06T17:58:41.434Z,100628.97
2023-02-06T18:01:13.052Z,100626.50
2023-02-06T18:03:40.621Z,100615.41
2023-02-06T18:06:07.811Z,100622.44
2023-02-06T18:08:34.472Z,100620.53
2023-02-06T18:11:06.673Z,100615.91
2023-02-06T18:13:33.355Z,100625.28
2023-02-06T18:15:59.838Z,100621.50
2023-02-06T18:18:26.732Z,100616.25
2023-02-06T18:20:53.459Z,100622.69
2023-02-06T18:23:20.128Z,100633.53
2023-02-06T18:25:46.856Z,100638.84
2023-02-06T18:28:14.946Z,100649.53
2023-02-06T18:30:42.140Z,100648.38
2023-02-06T18:33:09.451Z,100649.84
2023-02-06T18:35:40.845Z,100647.25
2023-02-06T18:38:10.093Z,100645.31
2023-02-06T18:40:41.384Z,100637.56
2023-02-06T18:43:08.205Z,100648.56
2023-02-06T18:45:37.800Z,100653.31
2023-02-06T18:48:06.784Z,100647.59
2023-02-06T18:50:34.344Z,100649.66
2023-02-06T18:53:00.926Z,100640.13
2023-02-06T18:55:27.839Z,100643.84
2023-02-06T18:57:54.953Z,100636.91
2023-02-06T19:00:23.516Z,100637.31
2023-02-06T19:02:50.854Z,100634.41
2023-02-06T19:05:18.790Z,100631.34
2023-02-06T19:07:50.114Z,100644.34
2023-02-06T19:10:18.502Z,100649.50
2023-02-06T19:12:45.750Z,100650.16
2023-02-06T19:15:14.942Z,100652.16
2023-02-06T19:17:42.050Z,100663.97
2023-02-06T19:20:10.373Z,100660.09
2023-02-06T19:22:38.503Z,100664.06
2023-02-06T19:25:10.573Z,100651.69
2023-02-06T19:27:38.727Z,100651.06
2023-02-06T19:30:07.964Z,100646.13
2023-02-06T19:32:35.352Z,100646.34
2023-02-06T19:35:02.959Z,100637.25
2023-02-06T19:37:29.807Z,100637.41
2023-02-06T19:39:56.810Z,100649.81
2023-02-06T19:42:23.621Z,100653.22
2023-02-06T19:44:54.973Z,100645.22
2023-02-06T19:47:22.422Z,100645.88
2023-02-06T19:49:51.667Z,100651.94
2023-02-06T19:52:19.091Z,100657.59
2023-02-06T19:54:47.913Z,100656.91
2023-02-06T19:57:16.247Z,100648.91
2023-02-06T19:59:42.982Z,100649.81
2023-02-06T20:02:12.963Z,100639.69
2023-02-06T20:04:39.936Z,100642.47
2023-02-06T20:07:06.702Z,100648.53
2023-02-06T20:09:33.652Z,100658.66
2023-02-06T20:12:00.731Z,100651.72
2023-02-06T20:14:27.875Z,100666.72
2023-02-06T20:16:54.873Z,100682.56
2023-02-06T20:19:24.960Z,100694.69
2023-02-06T20:21:54.517Z,100688.84
2023-02-06T20:24:29.434Z,100697.38
2023-02-06T20:27:00.174Z,100701.78
2023-02-06T20:29:30.189Z,100705.41
2023-02-06T20:31:57.634Z,100695.94
2023-02-06T20:34:26.575Z,100687.41
2023-02-06T20:36:53.735Z,100679.50
2023-02-06T20:39:20.779Z,100668.00
2023-02-06T20:41:49.650Z,100682.59
2023-02-06T20:44:17.424Z,100678.34
2023-02-06T20:46:44.046Z,100688.00
2023-02-06T20:49:31.315Z,100695.28
2023-02-06T20:51:58.682Z,100705.94
2023-02-06T20:54:25.904Z,100707.09
2023-02-06T20:56:52.737Z,100707.56
2023-02-06T20:59:20.596Z,100720.31
2023-02-06T21:01:47.852Z,100717.28
2023-02-06T21:04:16.732Z,100710.44
2023-02-06T21:06:44.122Z,100712.19
2023-02-06T21:09:11.411Z,100711.22
2023-02-06T21:11:44.277Z,100713.69
2023-02-06T21:14:11.876Z,100699.00
2023-02-06T21:16:39.238Z,100706.94
2023-02-06T21:19:07.994Z,100716.25
2023-02-06T21:21:35.301Z,100715.38
2023-02-06T21:24:02.095Z,100727.06
2023-02-06T21:26:29.602Z,100733.03
2023-02-06T21:28:58.278Z,100738.19
2023-02-06T21:31:37.035Z,100738.47
2023-02-06T21:34:17.181Z,100739.28
2023-02-06T21:36:44.501Z,100738.03
2023-02-06T21:39:16.161Z,100737.56
2023-02-06T21:41:44.059Z,100736.13
2023-02-06T21:44:10.804Z,100733.09
2023-02-06T21:46:37.633Z,100728.56
2023-02-06T21:49:06.496Z,100740.16
2023-02-06T21:51:33.173Z,100744.16
2023-02-06T21:53:59.810Z,100750.84
2023-02-06T21:56:27.626Z,100754.94
2023-02-06T21:58:54.501Z,100761.41
2023-02-06T22:01:24.252Z,100756.63
2023-02-06T22:03:51.374Z,100754.69
2023-02-06T22:06:20.200Z,100743.34
2023-02-06T22:08:51.890Z,100753.06
2023-02-06T22:11:22.524Z,100756.63
2023-02-06T22:13:49.931Z,100751.53
2023-02-06T22:16:22.334Z,100760.97
2023-02-06T22:18:49.570Z,100765.63
2023-02-06T22:21:19.168Z,100761.63
2023-02-06T22:23:47.313Z,100765.53
2023-02-06T22:26:16.534Z,100770.19
2023-02-06T22:28:43.517Z,100773.81
2023-02-06T22:31:25.353Z,100779.88
2023-02-06T22:33:53.812Z,100792.63
2023-02-06T22:36:23.582Z,100785.91
2023-02-06T22:38:56.413Z,100797.25
2023-02-06T22:41:23.312Z,100796.81
2023-02-06T22:43:51.146Z,100802.50
2023-02-06T22:46:24.215Z,100820.19
2023-02-06T22:48:50.956Z,100822.59
2023-02-06T22:51:18.547Z,100812.06
2023-02-06T22:53:45.663Z,100792.06
2023-02-06T22:56:37.191Z,100788.94
2023-02-06T22:59:17.704Z,100791.22
2023-02-06T23:01:58.838Z,100790.72
2023-02-06T23:04:28.522Z,100794.09
2023-02-06T23:06:55.123Z,100796.94
2023-02-06T23:09:26.918Z,100806.00
2023-02-06T23:11:54.533Z,100805.09
2023-02-06T23:14:21.924Z,100810.88
2023-02-06T23:16:48.845Z,100813.44
2023-02-06T23:19:16.441Z,100820.63
2023-02-06T23:21:45.066Z,100820.03
2023-02-06T23:24:12.899Z,100822.25
2023-02-06T23:26:42.588Z,100819.97
2023-02-06T23:29:11.004Z,100822.81
2023-02-06T23:31:37.898Z,100820.09
2023-02-06T23:34:04.733Z,100828.59
2023-02-06T23:36:31.344Z,100823.69
2023-02-06T23:39:01.486Z,100830.41
2023-02-06T23:41:29.051Z,100818.94
2023-02-06T23:44:04.456Z,100819.13
2023-02-06T23:46:33.159Z,100824.28
2023-02-06T23:48:59.923Z,100817.44
2023-02-06T23:51:26.649Z,100822.34
2023-02-06T23:53:53.386Z,100820.47
2023-02-06T23:56:25.981Z,100825.69
2023-02-06T23:58:54.585Z,100831.94
